Time;durP1;ratioP1;P1;durP2;ratioP2;P2;SDS_P1;SDS_P2;PMS_P1;PMS_P2;Temp;Humidity;BMP_temperature;BMP_pressure;BME280_temperature;BME280_humidity;BME280_pressure;Samples;Min_cycle;Max_cycle;Signal;HPM_P1;HPM_P2
2023/05/29 00:00:18;;;;;;;7.75;5.30;;;25.10;99.90;;;;;;5033274;28;20112;-55
2023/05/29 00:02:45;;;;;;;7.13;5.43;;;25.20;99.90;;;;;;5032789;28;20038;-55
2023/05/29 00:05:14;;;;;;;7.57;4.90;;;25.10;99.90;;;;;;5033383;28;20018;-55
2023/05/29 00:07:40;;;;;;;8.20;5.05;;;25.10;99.90;;;;;;5033129;28;20363;-55
2023/05/29 00:10:07;;;;;;;6.60;5.10;;;25.10;99.90;;;;;;5033354;28;20030;-55
2023/05/29 00:12:33;;;;;;;7.75;4.70;;;25.10;99.90;;;;;;5033041;28;20029;-56
2023/05/29 00:14:59;;;;;;;6.40;5.22;;;25.10;99.90;;;;;;5033402;28;20500;-55
2023/05/29 00:17:25;;;;;;;6.15;4.85;;;25.10;99.90;;;;;;5031553;28;20056;-55
2023/05/29 00:19:51;;;;;;;7.40;5.00;;;25.10;99.90;;;;;;5032920;28;20038;-55
2023/05/29 00:22:17;;;;;;;6.75;5.07;;;25.10;99.90;;;;;;5032784;28;20032;-55
2023/05/29 00:24:43;;;;;;;6.93;5.35;;;25.10;99.90;;;;;;5033225;28;20029;-55
2023/05/29 00:27:09;;;;;;;6.55;5.18;;;25.10;99.90;;;;;;5032517;28;20021;-56
2023/05/29 00:29:38;;;;;;;6.70;5.32;;;25.10;99.90;;;;;;5033068;28;20052;-55
2023/05/29 00:32:05;;;;;;;7.63;5.57;;;25.10;99.90;;;;;;5032834;28;20025;-56
2023/05/29 00:34:31;;;;;;;8.02;4.70;;;25.10;99.90;;;;;;5032612;28;20013;-55
2023/05/29 00:36:57;;;;;;;7.43;5.25;;;25.10;99.90;;;;;;5032833;28;20114;-55
2023/05/29 00:39:23;;;;;;;5.10;4.45;;;25.10;99.90;;;;;;5032521;28;20048;-56
2023/05/29 00:41:51;;;;;;;5.55;4.53;;;25.00;99.90;;;;;;5032673;28;20443;-56
2023/05/29 00:44:21;;;;;;;7.70;4.80;;;25.00;99.90;;;;;;5032705;28;20354;-56
2023/05/29 00:46:50;;;;;;;6.10;4.38;;;25.00;99.90;;;;;;5031885;28;20087;-55
2023/05/29 00:49:17;;;;;;;5.38;4.55;;;25.00;99.90;;;;;;5032503;28;20104;-55
2023/05/29 00:51:43;;;;;;;7.90;5.63;;;25.00;99.90;;;;;;5032775;28;20021;-55
2023/05/29 00:54:12;;;;;;;7.13;4.78;;;25.00;99.90;;;;;;5032838;28;20022;-55
2023/05/29 00:56:44;;;;;;;5.40;4.30;;;25.00;99.90;;;;;;5032554;28;20022;-55
2023/05/29 00:59:11;;;;;;;5.35;4.55;;;25.00;99.90;;;;;;5032085;28;20497;-55
2023/05/29 01:01:38;;;;;;;7.53;4.78;;;25.00;99.90;;;;;;5033002;28;20069;-56
2023/05/29 01:04:06;;;;;;;7.63;4.53;;;25.00;99.90;;;;;;5032259;28;20025;-55
2023/05/29 01:06:32;;;;;;;6.03;4.75;;;25.00;99.90;;;;;;5032537;28;20033;-56
2023/05/29 01:08:58;;;;;;;7.43;4.90;;;25.00;99.90;;;;;;5032383;28;20017;-55
2023/05/29 01:11:47;;;;;;;7.22;4.72;;;25.00;99.90;;;;;;5017546;28;20025;-55
2023/05/29 01:14:33;;;;;;;7.60;4.68;;;25.00;99.90;;;;;;5031279;28;20350;-55
2023/05/29 01:17:03;;;;;;;5.25;4.40;;;25.00;99.90;;;;;;5032644;28;20023;-55
2023/05/29 01:19:51;;;;;;;6.45;4.88;;;25.00;99.90;;;;;;5032097;28;20037;-56
2023/05/29 01:22:35;;;;;;;6.03;4.60;;;25.00;99.90;;;;;;5032574;28;20409;-56
2023/05/29 01:25:23;;;;;;;5.68;3.88;;;25.00;99.90;;;;;;5020546;28;20427;-55
2023/05/29 01:27:50;;;;;;;5.47;4.20;;;25.00;99.90;;;;;;5032304;28;20021;-55
2023/05/29 01:30:16;;;;;;;6.18;4.40;;;25.00;99.90;;;;;;5031077;28;20057;-56
2023/05/29 01:32:43;;;;;;;6.10;4.40;;;25.00;99.90;;;;;;5032167;28;20037;-56
2023/05/29 01:35:09;;;;;;;8.23;3.78;;;25.00;99.90;;;;;;5031055;28;20025;-55
2023/05/29 01:37:35;;;;;;;5.65;4.60;;;25.00;99.90;;;;;;5032186;28;20036;-55
2023/05/29 01:40:03;;;;;;;5.05;3.90;;;25.00;99.90;;;;;;5032353;28;20083;-56
2023/05/29 01:42:29;;;;;;;6.57;4.18;;;25.00;99.90;;;;;;5032229;28;20021;-57
2023/05/29 01:44:56;;;;;;;6.03;4.20;;;24.90;99.90;;;;;;5032383;28;20140;-57
2023/05/29 01:47:23;;;;;;;5.80;4.50;;;24.90;99.90;;;;;;5031949;28;20025;-56
2023/05/29 01:49:51;;;;;;;4.57;3.95;;;24.90;99.90;;;;;;5032343;28;20397;-57
2023/05/29 01:52:17;;;;;;;;;;;24.90;99.90;;;;;;5032588;28;20021;-57
2023/05/29 01:54:43;;;;;;;6.65;4.57;;;24.90;99.90;;;;;;5032244;28;19912;-57
2023/05/29 01:57:10;;;;;;;5.18;4.18;;;25.00;99.90;;;;;;5032075;28;20470;-56
2023/05/29 01:59:37;;;;;;;4.80;4.03;;;24.90;99.90;;;;;;5034556;28;20516;-56
2023/05/29 02:02:07;;;;;;;5.63;4.10;;;24.90;99.90;;;;;;5036122;28;20049;-57
2023/05/29 02:04:33;;;;;;;5.45;3.75;;;24.90;99.90;;;;;;5035411;28;20358;-56
2023/05/29 02:06:58;;;;;;;5.18;3.88;;;24.90;99.90;;;;;;5035968;28;20444;-57
2023/05/29 02:09:25;;;;;;;7.03;4.32;;;24.90;99.90;;;;;;5033950;28;20025;-57
2023/05/29 02:11:51;;;;;;;5.13;3.60;;;24.90;99.90;;;;;;5035388;28;20017;-57
2023/05/29 02:14:18;;;;;;;6.65;3.78;;;24.90;99.90;;;;;;5035389;28;20362;-56
2023/05/29 02:16:44;;;;;;;6.45;5.05;;;24.90;99.90;;;;;;5035562;28;20100;-56
2023/05/29 02:19:10;;;;;;;4.10;3.22;;;24.90;99.90;;;;;;5034824;28;20330;-57
2023/05/29 02:21:40;;;;;;;5.45;3.85;;;24.90;99.90;;;;;;5035039;28;20525;-56
2023/05/29 02:24:07;;;;;;;4.90;3.50;;;24.90;99.90;;;;;;5035140;28;20177;-58
2023/05/29 02:26:32;;;;;;;4.65;3.60;;;24.90;99.90;;;;;;5022069;28;20029;-56
2023/05/29 02:28:58;;;;;;;4.78;3.88;;;24.90;99.90;;;;;;5033844;28;20026;-56
2023/05/29 02:31:24;;;;;;;4.72;3.83;;;24.80;99.90;;;;;;5035102;28;20473;-56
2023/05/29 02:33:50;;;;;;;5.13;3.63;;;24.90;99.90;;;;;;5033705;28;20030;-56
2023/05/29 02:36:16;;;;;;;3.80;3.35;;;24.80;99.90;;;;;;5035066;28;20098;-56
2023/05/29 02:38:42;;;;;;;5.55;3.67;;;24.80;99.90;;;;;;5035270;28;20128;-56
2023/05/29 02:41:08;;;;;;;6.25;3.92;;;24.80;99.90;;;;;;5034429;28;20109;-56
2023/05/29 02:43:34;;;;;;;5.90;3.17;;;24.80;99.90;;;;;;5034879;28;20025;-56
2023/05/29 02:45:59;;;;;;;4.85;3.72;;;24.80;99.90;;;;;;5034796;28;20022;-55
2023/05/29 02:48:25;;;;;;;4.03;3.25;;;24.80;99.90;;;;;;5034725;28;20372;-56
2023/05/29 02:50:52;;;;;;;6.03;3.35;;;24.80;99.90;;;;;;5033253;28;20025;-56
2023/05/29 02:53:18;;;;;;;4.07;3.25;;;24.80;99.90;;;;;;5034631;28;20382;-56
2023/05/29 02:55:44;;;;;;;3.63;3.25;;;24.80;99.90;;;;;;5034511;28;20478;-56
2023/05/29 02:58:11;;;;;;;5.10;3.95;;;24.80;99.90;;;;;;5034381;28;20104;-55
2023/05/29 03:00:37;;;;;;;4.20;3.30;;;24.80;99.90;;;;;;5035240;28;20033;-55
2023/05/29 03:03:04;;;;;;;3.35;2.83;;;24.80;99.90;;;;;;5034027;28;20115;-56
2023/05/29 03:05:30;;;;;;;5.03;3.10;;;24.80;99.90;;;;;;5034718;28;20109;-56
2023/05/29 03:07:56;;;;;;;4.03;3.03;;;24.80;99.90;;;;;;5034456;28;20101;-56
2023/05/29 03:10:22;;;;;;;5.25;3.40;;;24.70;99.90;;;;;;5033369;28;20377;-56
2023/05/29 03:12:47;;;;;;;5.60;3.17;;;24.70;99.90;;;;;;5034446;28;20021;-56
2023/05/29 03:15:14;;;;;;;4.53;3.55;;;24.70;99.90;;;;;;5034191;28;20428;-56
2023/05/29 03:17:40;;;;;;;5.30;2.88;;;24.70;99.90;;;;;;5033960;28;20092;-56
2023/05/29 03:20:07;;;;;;;4.05;3.13;;;24.70;99.90;;;;;;5034091;28;20040;-56
2023/05/29 03:22:34;;;;;;;4.53;3.03;;;24.70;99.90;;;;;;5033911;28;20025;-56
2023/05/29 03:25:02;;;;;;;3.65;3.15;;;24.70;99.90;;;;;;5020850;28;20501;-57
2023/05/29 03:27:29;;;;;;;;;;;24.70;99.90;;;;;;5034343;28;20036;-56
2023/05/29 03:29:55;;;;;;;4.47;3.13;;;24.70;99.90;;;;;;5033927;28;19996;-57
2023/05/29 03:32:21;;;;;;;3.80;2.78;;;24.70;99.90;;;;;;5033844;28;20049;-57
2023/05/29 03:34:47;;;;;;;3.63;3.00;;;24.70;99.90;;;;;;5033689;28;20106;-57
2023/05/29 03:37:13;;;;;;;4.50;3.13;;;24.70;99.90;;;;;;5033874;28;20075;-56
2023/05/29 03:39:39;;;;;;;3.40;2.85;;;24.70;99.90;;;;;;5033435;28;20108;-56
2023/05/29 03:42:05;;;;;;;4.13;2.83;;;24.70;99.90;;;;;;5033597;28;20499;-56
2023/05/29 03:44:31;;;;;;;2.90;2.50;;;24.70;99.90;;;;;;5033614;28;20104;-56
2023/05/29 03:46:57;;;;;;;3.65;2.75;;;24.70;99.90;;;;;;5015519;28;20121;-56
2023/05/29 03:49:23;;;;;;;3.70;2.65;;;24.60;99.90;;;;;;5033462;28;20075;-56
2023/05/29 03:51:49;;;;;;;4.88;3.35;;;24.60;99.90;;;;;;5033719;28;20025;-56
2023/05/29 03:54:15;;;;;;;4.00;2.83;;;24.70;99.90;;;;;;5033374;28;20022;-56
2023/05/29 03:56:41;;;;;;;5.88;2.70;;;24.60;99.90;;;;;;5033233;28;20068;-56
2023/05/29 03:59:07;;;;;;;5.53;3.28;;;24.60;99.90;;;;;;5033517;28;20038;-56
2023/05/29 04:01:33;;;;;;;3.58;2.67;;;24.60;99.90;;;;;;5033571;28;20124;-55
2023/05/29 04:03:59;;;;;;;4.47;2.85;;;24.60;99.90;;;;;;5031916;28;20052;-56
2023/05/29 04:06:25;;;;;;;3.30;2.67;;;24.60;99.90;;;;;;5033280;28;20030;-55
2023/05/29 04:08:51;;;;;;;5.82;2.60;;;24.60;99.90;;;;;;5033275;28;20033;-56
2023/05/29 04:11:20;;;;;;;4.00;2.75;;;24.60;99.90;;;;;;5032953;28;20067;-56
2023/05/29 04:13:47;;;;;;;5.47;3.22;;;24.60;99.90;;;;;;5033367;28;20371;-56
2023/05/29 04:16:13;;;;;;;7.90;2.88;;;24.60;99.90;;;;;;5033007;28;20017;-56
2023/05/29 04:18:39;;;;;;;4.45;2.65;;;24.60;99.90;;;;;;5033047;28;20060;-56
2023/05/29 04:21:05;;;;;;;4.68;2.55;;;24.60;99.90;;;;;;5031147;28;20182;-56
2023/05/29 04:23:31;;;;;;;3.95;2.78;;;24.60;99.90;;;;;;5031990;28;20486;-57
2023/05/29 04:25:57;;;;;;;5.13;3.10;;;24.60;99.90;;;;;;5031663;28;20040;-56
2023/05/29 04:28:24;;;;;;;4.18;2.92;;;24.50;99.90;;;;;;5033010;28;20017;-56
2023/05/29 04:30:50;;;;;;;3.65;2.75;;;24.50;99.90;;;;;;5033000;28;20021;-57
2023/05/29 04:33:17;;;;;;;4.55;2.78;;;24.50;99.90;;;;;;5032676;28;20029;-56
2023/05/29 04:35:43;;;;;;;;;;;24.50;99.90;;;;;;5033267;28;20093;-56
2023/05/29 04:38:09;;;;;;;5.25;3.42;;;24.50;99.90;;;;;;5032898;28;19905;-56
2023/05/29 04:40:36;;;;;;;4.35;2.63;;;24.60;99.90;;;;;;5032596;28;20052;-56
2023/05/29 04:43:05;;;;;;;4.38;2.92;;;24.50;99.90;;;;;;5031463;28;20022;-56
2023/05/29 04:45:30;;;;;;;6.32;2.70;;;24.50;99.90;;;;;;5032842;28;20022;-56
2023/05/29 04:47:56;;;;;;;4.70;2.60;;;24.50;99.90;;;;;;5032396;28;20064;-56
2023/05/29 04:50:27;;;;;;;9.13;3.05;;;24.50;99.90;;;;;;5032614;28;20028;-56
2023/05/29 04:52:53;;;;;;;4.70;2.75;;;24.50;99.90;;;;;;5032416;28;20064;-56
2023/05/29 04:55:18;;;;;;;16.17;3.58;;;24.50;99.90;;;;;;5032555;28;20057;-56
2023/05/29 04:57:44;;;;;;;4.38;2.70;;;24.50;99.90;;;;;;5032311;28;20021;-56
2023/05/29 05:00:14;;;;;;;5.45;2.30;;;24.50;99.90;;;;;;5032650;28;20026;-56
2023/05/29 05:02:42;;;;;;;4.55;2.60;;;24.50;99.90;;;;;;5032449;28;20398;-56
2023/05/29 05:05:08;;;;;;;3.83;2.60;;;24.50;99.90;;;;;;5032598;28;20032;-56
2023/05/29 05:07:34;;;;;;;4.63;2.90;;;24.40;99.90;;;;;;5032441;28;20025;-56
2023/05/29 05:10:03;;;;;;;4.60;2.20;;;24.50;99.90;;;;;;5031336;28;20136;-56
2023/05/29 05:12:28;;;;;;;4.15;2.45;;;24.50;99.90;;;;;;5032356;28;20075;-56
2023/05/29 05:14:55;;;;;;;4.85;2.92;;;24.50;99.90;;;;;;5031064;28;20029;-56
2023/05/29 05:17:20;;;;;;;5.18;3.17;;;24.40;99.90;;;;;;5032609;28;20053;-57
2023/05/29 05:19:48;;;;;;;5.07;3.03;;;24.50;99.90;;;;;;5031805;28;20064;-57
2023/05/29 05:22:14;;;;;;;4.40;2.90;;;24.40;99.90;;;;;;5031280;28;20091;-57
2023/05/29 05:24:40;;;;;;;5.00;3.05;;;24.40;99.90;;;;;;5032353;28;20469;-56
2023/05/29 05:27:06;;;;;;;6.78;3.55;;;24.40;99.90;;;;;;5032075;28;20029;-56
2023/05/29 05:29:32;;;;;;;6.65;3.40;;;24.40;99.90;;;;;;5032297;28;20025;-56
2023/05/29 05:31:58;;;;;;;5.95;3.20;;;24.40;99.90;;;;;;5032043;28;20022;-57
2023/05/29 05:34:24;;;;;;;7.32;3.95;;;24.40;99.90;;;;;;5034560;28;20429;-57
2023/05/29 05:36:50;;;;;;;7.13;3.60;;;24.40;99.90;;;;;;5036297;28;20021;-57
2023/05/29 05:39:15;;;;;;;7.47;3.85;;;24.40;99.90;;;;;;5036116;28;20024;-57
2023/05/29 05:41:41;;;;;;;5.00;3.88;;;24.40;99.90;;;;;;5034366;28;20029;-57
2023/05/29 05:44:07;;;;;;;9.07;4.28;;;24.40;99.90;;;;;;5036030;28;20111;-57
2023/05/29 05:46:33;;;;;;;5.78;4.40;;;24.40;99.90;;;;;;5035694;28;20028;-57
2023/05/29 05:49:00;;;;;;;9.10;4.80;;;24.40;99.90;;;;;;5035710;28;20025;-58
2023/05/29 05:51:26;;;;;;;;;;;24.40;99.90;;;;;;5036150;28;20133;-58
2023/05/29 05:53:52;;;;;;;7.10;4.78;;;24.40;99.90;;;;;;5035820;28;20370;-57
2023/05/29 05:56:18;;;;;;;8.73;5.35;;;24.40;99.90;;;;;;5035523;28;20062;-57
2023/05/29 05:58:44;;;;;;;7.80;4.88;;;24.40;99.90;;;;;;5035761;28;20061;-57
2023/05/29 06:01:10;;;;;;;8.98;5.40;;;24.30;99.90;;;;;;5035496;28;20051;-57
2023/05/29 06:03:37;;;;;;;9.43;5.03;;;24.40;99.90;;;;;;5035271;28;20545;-57
2023/05/29 06:06:03;;;;;;;9.15;5.18;;;24.30;99.90;;;;;;5035795;28;20386;-57
2023/05/29 06:08:30;;;;;;;7.63;5.00;;;24.30;99.90;;;;;;5035522;28;20443;-57
2023/05/29 06:10:56;;;;;;;7.40;5.10;;;24.30;99.90;;;;;;5035187;28;20474;-57
2023/05/29 06:13:22;;;;;;;8.40;5.70;;;24.30;99.90;;;;;;5035171;28;20083;-57
2023/05/29 06:15:47;;;;;;;8.10;5.78;;;24.30;99.90;;;;;;5035327;28;20021;-57
2023/05/29 06:18:13;;;;;;;6.72;5.00;;;24.30;99.90;;;;;;5035078;28;20477;-57
2023/05/29 06:20:39;;;;;;;6.45;4.95;;;24.30;99.90;;;;;;5034131;28;20124;-58
2023/05/29 06:23:05;;;;;;;10.65;5.75;;;24.30;99.90;;;;;;5033772;28;20159;-57
2023/05/29 06:25:34;;;;;;;9.23;5.75;;;24.30;99.90;;;;;;5035130;28;20477;-57
2023/05/29 06:28:01;;;;;;;10.95;6.18;;;24.30;99.90;;;;;;5034824;28;20017;-57
2023/05/29 06:30:27;;;;;;;7.32;5.13;;;24.30;99.90;;;;;;5033769;28;20030;-57
2023/05/29 06:32:53;;;;;;;11.98;5.70;;;24.30;99.90;;;;;;5034963;28;20026;-57
2023/05/29 06:35:18;;;;;;;9.00;5.10;;;24.30;99.90;;;;;;5033793;28;20026;-57
2023/05/29 06:37:45;;;;;;;7.00;5.15;;;24.40;99.90;;;;;;5034596;28;20032;-56
2023/05/29 06:40:18;;;;;;;7.88;5.53;;;24.30;99.90;;;;;;5033301;28;20025;-57
2023/05/29 06:42:46;;;;;;;9.20;5.32;;;24.40;99.90;;;;;;5034613;28;20036;-57
2023/05/29 06:45:15;;;;;;;7.70;5.05;;;24.30;99.90;;;;;;5033513;28;20092;-57
2023/05/29 06:47:42;;;;;;;8.32;4.85;;;24.40;99.90;;;;;;5034243;28;20063;-57
2023/05/29 06:50:08;;;;;;;7.80;5.27;;;24.30;99.90;;;;;;5034746;28;20393;-57
2023/05/29 06:52:34;;;;;;;7.38;5.43;;;24.40;99.90;;;;;;5034476;28;20021;-57
2023/05/29 06:55:01;;;;;;;11.55;5.88;;;24.40;99.90;;;;;;5034799;28;20428;-56
2023/05/29 06:57:27;;;;;;;8.32;4.95;;;24.40;99.90;;;;;;5034500;28;20025;-57
2023/05/29 06:59:52;;;;;;;8.90;5.35;;;24.40;99.90;;;;;;5034299;28;20090;-56
2023/05/29 07:02:18;;;;;;;7.65;5.07;;;24.40;99.90;;;;;;5033035;28;20080;-57
2023/05/29 07:04:44;;;;;;;9.65;5.25;;;24.40;99.90;;;;;;5034318;28;20018;-57
2023/05/29 07:07:10;;;;;;;6.05;4.38;;;24.40;99.90;;;;;;5034638;28;20025;-57
2023/05/29 07:09:36;;;;;;;7.80;5.00;;;24.40;99.90;;;;;;5033121;28;20382;-56
2023/05/29 07:12:01;;;;;;;7.05;5.60;;;24.40;99.90;;;;;;5034274;28;20028;-57
2023/05/29 07:14:27;;;;;;;7.10;5.00;;;24.40;99.90;;;;;;5034388;28;20044;-57
2023/05/29 07:16:53;;;;;;;6.38;4.53;;;24.40;99.90;;;;;;5034292;28;20424;-57
2023/05/29 07:19:19;;;;;;;7.68;4.82;;;24.40;99.90;;;;;;5033994;28;20036;-57
2023/05/29 07:21:44;;;;;;;7.05;5.00;;;24.40;99.90;;;;;;5033953;28;20091;-57
2023/05/29 07:24:10;;;;;;;6.35;4.68;;;24.40;99.90;;;;;;5034185;28;20151;-57
2023/05/29 07:26:36;;;;;;;7.25;4.97;;;24.40;99.90;;;;;;5033654;28;20378;-57
2023/05/29 07:29:01;;;;;;;6.03;4.75;;;24.40;99.90;;;;;;5033868;28;20450;-57
2023/05/29 07:31:27;;;;;;;5.63;4.28;;;24.40;99.90;;;;;;5033782;28;20041;-56
2023/05/29 07:33:54;;;;;;;8.45;4.53;;;24.40;99.90;;;;;;5033761;28;20428;-56
2023/05/29 07:36:20;;;;;;;6.53;4.10;;;24.40;99.90;;;;;;5033840;28;20030;-56
2023/05/29 07:38:46;;;;;;;8.32;4.65;;;24.40;99.90;;;;;;5034035;28;20032;-56
2023/05/29 07:41:11;;;;;;;6.07;4.53;;;24.40;99.90;;;;;;5033257;28;20116;-57
2023/05/29 07:43:37;;;;;;;6.00;3.97;;;24.40;99.90;;;;;;5033734;28;20028;-56
2023/05/29 07:46:03;;;;;;;5.20;3.50;;;24.50;99.90;;;;;;5033616;28;20025;-56
2023/05/29 07:48:29;;;;;;;6.25;4.47;;;24.50;99.90;;;;;;5033399;28;20061;-57
2023/05/29 07:50:55;;;;;;;5.22;3.65;;;24.50;99.90;;;;;;5033515;28;20096;-57
2023/05/29 07:53:21;;;;;;;5.90;4.53;;;24.40;99.90;;;;;;5033437;28;20033;-56
2023/05/29 07:55:46;;;;;;;6.05;4.20;;;24.40;99.90;;;;;;5032795;28;20462;-56
2023/05/29 07:58:12;;;;;;;6.75;4.65;;;24.50;99.90;;;;;;5031820;28;20057;-57
2023/05/29 08:00:38;;;;;;;7.13;4.22;;;24.50;99.90;;;;;;5033073;28;20470;-56
2023/05/29 08:03:04;;;;;;;6.00;4.05;;;24.50;99.90;;;;;;5032891;28;20029;-57
2023/05/29 08:05:33;;;;;;;6.05;3.90;;;24.50;99.90;;;;;;5033488;28;20021;-56
2023/05/29 08:07:59;;;;;;;4.88;3.70;;;24.40;99.90;;;;;;5033068;28;20015;-57
2023/05/29 08:10:25;;;;;;;6.88;4.50;;;24.50;99.90;;;;;;5031681;28;20032;-57
2023/05/29 08:12:51;;;;;;;5.75;4.32;;;24.50;99.90;;;;;;5033366;28;20025;-57
2023/05/29 08:15:19;;;;;;;6.37;4.43;;;24.50;99.90;;;;;;5033231;28;20071;-56
2023/05/29 08:17:44;;;;;;;11.05;4.57;;;24.50;99.90;;;;;;5032886;28;20022;-57
2023/05/29 08:20:10;;;;;;;7.28;4.50;;;24.50;99.90;;;;;;5033239;28;20449;-57
2023/05/29 08:22:36;;;;;;;8.35;4.25;;;24.50;99.90;;;;;;5033051;28;20029;-57
2023/05/29 08:25:02;;;;;;;7.95;3.80;;;24.50;99.90;;;;;;5031228;28;20068;-56
2023/05/29 08:27:28;;;;;;;5.63;4.18;;;24.50;99.90;;;;;;5032780;28;20034;-57
2023/05/29 08:29:54;;;;;;;5.63;4.03;;;24.50;99.90;;;;;;5032552;28;20431;-57
2023/05/29 08:32:21;;;;;;;5.03;3.55;;;24.50;99.90;;;;;;5033082;28;20108;-57
2023/05/29 08:34:46;;;;;;;5.82;3.67;;;24.50;99.90;;;;;;5032772;28;20028;-57
2023/05/29 08:37:13;;;;;;;4.65;3.70;;;24.50;99.90;;;;;;5031505;28;20029;-57
2023/05/29 08:39:39;;;;;;;4.60;3.63;;;24.50;99.90;;;;;;5032778;28;20028;-57
2023/05/29 08:42:10;;;;;;;6.80;3.90;;;24.50;99.90;;;;;;5032602;28;20021;-57
2023/05/29 08:44:39;;;;;;;4.40;3.60;;;24.50;99.90;;;;;;5032730;28;20037;-57
2023/05/29 08:47:07;;;;;;;6.05;3.80;;;24.50;99.90;;;;;;5032555;28;20013;-57
2023/05/29 08:49:44;;;;;;;7.28;4.00;;;24.50;99.90;;;;;;5032067;28;20036;-57
2023/05/29 08:52:15;;;;;;;5.35;4.10;;;24.50;99.90;;;;;;5032541;28;20025;-57
2023/05/29 08:54:41;;;;;;;6.65;4.00;;;24.50;99.90;;;;;;5032696;28;20037;-57
2023/05/29 08:57:07;;;;;;;6.18;3.90;;;24.50;99.90;;;;;;5032551;28;20017;-57
2023/05/29 08:59:34;;;;;;;6.13;3.97;;;24.50;99.90;;;;;;5032392;28;20102;-57
2023/05/29 09:02:00;;;;;;;5.20;3.72;;;24.50;99.90;;;;;;5032457;28;20056;-56
2023/05/29 09:04:30;;;;;;;7.30;4.15;;;24.50;99.90;;;;;;5032382;28;20030;-57
2023/05/29 09:06:58;;;;;;;5.97;4.05;;;24.50;99.90;;;;;;5032493;28;20496;-57
2023/05/29 09:09:27;;;;;;;5.07;3.50;;;24.50;99.90;;;;;;5034977;28;20025;-57
2023/05/29 09:11:53;;;;;;;6.53;3.67;;;24.50;99.90;;;;;;5022972;28;20091;-56
2023/05/29 09:14:36;;;;;;;7.10;4.20;;;24.50;99.90;;;;;;5036215;28;20029;-56
2023/05/29 09:17:03;;;;;;;6.20;4.43;;;24.50;99.90;;;;;;5036387;28;20017;-56
2023/05/29 09:19:29;;;;;;;5.40;3.80;;;24.50;99.90;;;;;;5035969;28;20017;-56
2023/05/29 09:22:02;;;;;;;6.55;4.10;;;24.50;99.90;;;;;;5036199;28;20029;-56
2023/05/29 09:24:28;;;;;;;4.80;3.83;;;24.50;99.90;;;;;;5036421;28;20022;-56
2023/05/29 09:26:55;;;;;;;7.07;4.82;;;24.50;99.90;;;;;;5036193;28;20029;-57
2023/05/29 09:29:21;;;;;;;7.22;3.88;;;24.50;99.90;;;;;;5036093;28;20079;-57
2023/05/29 09:31:47;;;;;;;5.55;4.05;;;24.60;99.90;;;;;;5036262;28;20025;-56
2023/05/29 09:34:13;;;;;;;6.75;4.13;;;24.60;99.90;;;;;;5034544;28;20025;-56
2023/05/29 09:36:39;;;;;;;7.28;4.00;;;24.60;99.90;;;;;;5036224;28;20086;-56
2023/05/29 09:39:09;;;;;;;5.68;3.65;;;24.60;99.90;;;;;;5036188;28;20108;-57
2023/05/29 09:41:41;;;;;;;9.05;4.57;;;24.60;99.90;;;;;;5035859;28;20040;-58
2023/05/29 09:44:10;;;;;;;5.43;3.65;;;24.60;99.90;;;;;;5035493;28;20105;-57
2023/05/29 09:46:35;;;;;;;7.25;3.60;;;24.60;99.90;;;;;;5036086;28;20013;-56
2023/05/29 09:49:03;;;;;;;6.45;3.85;;;24.60;99.90;;;;;;5035767;28;20022;-58
2023/05/29 09:51:30;;;;;;;4.45;3.53;;;24.60;99.90;;;;;;5035540;28;20020;-57
2023/05/29 09:54:00;;;;;;;5.80;3.80;;;24.60;99.90;;;;;;5035681;28;20053;-56
2023/05/29 09:56:28;;;;;;;5.50;3.47;;;24.60;99.90;;;;;;5035275;28;20104;-57
2023/05/29 09:58:56;;;;;;;;;;;24.60;99.90;;;;;;5036013;28;20091;-56
2023/05/29 10:01:23;;;;;;;7.15;4.00;;;24.70;99.90;;;;;;5035312;28;19967;-57
2023/05/29 10:03:49;;;;;;;7.18;3.95;;;24.60;99.90;;;;;;5035103;28;20079;-56
2023/05/29 10:06:20;;;;;;;5.80;3.83;;;24.60;99.90;;;;;;5035332;28;20030;-57
2023/05/29 10:08:49;;;;;;;4.88;3.72;;;24.60;99.90;;;;;;5035438;28;20017;-57
2023/05/29 10:11:24;;;;;;;5.35;3.60;;;24.70;99.90;;;;;;5035051;28;20029;-57
2023/05/29 10:13:52;;;;;;;6.90;3.58;;;24.60;99.90;;;;;;5035365;28;20068;-57
2023/05/29 10:16:22;;;;;;;6.43;4.15;;;24.70;99.90;;;;;;5035221;28;20079;-57
2023/05/29 10:18:54;;;;;;;5.68;3.67;;;24.70;99.90;;;;;;5034819;28;20393;-57
2023/05/29 10:21:21;;;;;;;7.00;3.83;;;24.70;99.90;;;;;;5035307;28;20053;-57
2023/05/29 10:23:51;;;;;;;6.43;3.63;;;24.70;99.90;;;;;;5035381;28;20036;-57
2023/05/29 10:26:22;;;;;;;5.88;3.75;;;24.60;99.90;;;;;;5035154;28;20021;-57
2023/05/29 10:29:01;;;;;;;7.10;4.00;;;24.60;99.90;;;;;;5035238;28;20025;-57
2023/05/29 10:32:15;;;;;;;4.75;3.40;;;24.70;99.90;;;;;;5035128;28;20497;-57
2023/05/29 10:35:12;;;;;;;6.45;3.88;;;24.70;99.90;;;;;;5034928;28;20034;-57
2023/05/29 10:37:59;;;;;;;4.03;3.40;;;24.70;99.90;;;;;;5034898;28;20024;-57
2023/05/29 10:40:26;;;;;;;6.63;3.45;;;24.70;99.90;;;;;;5034613;28;20456;-57
2023/05/29 10:42:57;;;;;;;4.50;3.90;;;24.70;99.90;;;;;;5034953;28;20025;-57
2023/05/29 10:45:32;;;;;;;4.55;4.07;;;24.70;99.90;;;;;;5034716;28;20024;-57
2023/05/29 10:48:06;;;;;;;7.55;3.70;;;24.70;99.90;;;;;;5022733;28;20025;-57
2023/05/29 10:50:42;;;;;;;5.00;3.42;;;24.70;99.90;;;;;;5034583;28;20053;-56
2023/05/29 10:53:12;;;;;;;6.30;3.72;;;24.70;99.90;;;;;;5034530;28;20097;-57
2023/05/29 10:55:39;;;;;;;7.35;4.07;;;24.70;99.90;;;;;;5034519;28;20029;-56
2023/05/29 10:58:06;;;;;;;10.68;5.05;;;24.70;99.90;;;;;;5034533;28;20494;-57
2023/05/29 11:00:32;;;;;;;5.73;3.17;;;24.70;99.90;;;;;;5034488;28;20037;-56
2023/05/29 11:03:03;;;;;;;7.05;4.20;;;24.70;99.90;;;;;;5034088;28;20053;-57
2023/05/29 11:05:29;;;;;;;5.82;3.33;;;24.70;99.90;;;;;;5033234;28;20075;-56
2023/05/29 11:08:00;;;;;;;10.93;4.10;;;24.80;99.90;;;;;;5034290;28;20026;-57
2023/05/29 11:10:55;;;;;;;7.97;4.15;;;24.80;99.90;;;;;;5034386;28;20473;-57
2023/05/29 11:13:31;;;;;;;5.68;3.33;;;24.80;99.90;;;;;;5034255;28;20048;-57
2023/05/29 11:16:29;;;;;;;6.80;3.92;;;24.80;99.90;;;;;;5034370;28;20021;-57
2023/05/29 11:18:56;;;;;;;5.28;3.60;;;24.80;99.90;;;;;;5022882;28;20029;-58
2023/05/29 11:21:43;;;;;;;6.88;3.65;;;24.80;99.90;;;;;;5034284;28;20486;-57
2023/05/29 11:24:25;;;;;;;4.97;3.75;;;24.80;99.90;;;;;;5033896;28;20032;-57
2023/05/29 11:26:53;;;;;;;6.45;4.05;;;24.80;99.90;;;;;;5033986;28;20128;-57
2023/05/29 11:29:28;;;;;;;7.30;4.45;;;24.80;99.90;;;;;;5034343;28;20022;-57
2023/05/29 11:32:05;;;;;;;8.85;4.63;;;24.80;99.90;;;;;;5020338;28;20053;-56
2023/05/29 11:34:32;;;;;;;8.85;3.80;;;24.80;99.90;;;;;;5032950;28;20094;-56
2023/05/29 11:36:59;;;;;;;8.60;4.00;;;24.90;99.90;;;;;;5032533;28;20438;-56
2023/05/29 11:39:25;;;;;;;;;;;24.90;99.90;;;;;;5014926;28;20029;-57
2023/05/29 11:41:54;;;;;;;7.07;3.92;;;24.90;99.90;;;;;;5030818;28;20411;-57
2023/05/29 11:44:23;;;;;;;9.25;4.10;;;24.90;99.90;;;;;;5032929;28;20070;-57
2023/05/29 11:47:04;;;;;;;7.60;3.85;;;24.90;99.90;;;;;;5032540;28;20022;-57
2023/05/29 11:49:32;;;;;;;9.02;4.85;;;25.00;99.90;;;;;;5032242;28;20029;-57
2023/05/29 11:52:09;;;;;;;11.73;4.18;;;24.90;99.90;;;;;;5031669;28;20067;-57
2023/05/29 11:54:34;;;;;;;9.00;4.03;;;24.90;99.90;;;;;;5040873;28;20033;-57
2023/05/29 11:57:02;;;;;;;6.63;3.75;;;24.90;99.90;;;;;;5032276;28;20026;-57
2023/05/29 11:59:32;;;;;;;10.07;4.57;;;25.00;99.90;;;;;;5014602;28;20033;-56
2023/05/29 12:01:58;;;;;;;14.65;5.80;;;25.00;99.90;;;;;;5037069;28;20443;-58
2023/05/29 12:04:24;;;;;;;14.63;4.85;;;25.00;99.90;;;;;;5030292;28;20028;-58
2023/05/29 12:06:50;;;;;;;14.10;5.43;;;25.00;99.90;;;;;;5031934;28;20377;-57
2023/05/29 12:09:29;;;;;;;13.80;7.32;;;25.00;99.90;;;;;;5031363;28;20029;-55
2023/05/29 12:12:02;;;;;;;18.80;9.15;;;24.90;99.90;;;;;;5043322;28;20025;-54
2023/05/29 12:14:28;;;;;;;16.00;9.13;;;24.90;99.90;;;;;;5032024;28;20555;-57
2023/05/29 12:16:54;;;;;;;20.00;8.63;;;24.90;99.90;;;;;;5018079;28;20025;-57
2023/05/29 12:19:20;;;;;;;14.82;7.28;;;24.90;99.90;;;;;;5024255;28;20110;-61
2023/05/29 12:21:46;;;;;;;15.73;8.00;;;24.90;99.90;;;;;;5036941;28;20052;-61
2023/05/29 12:24:12;;;;;;;15.73;7.65;;;24.90;99.90;;;;;;5032075;28;20018;-58
2023/05/29 12:26:38;;;;;;;21.77;8.55;;;24.90;99.90;;;;;;5031978;28;20083;-58
2023/05/29 12:29:05;;;;;;;23.23;7.93;;;24.90;99.90;;;;;;5036666;28;20021;-59
2023/05/29 12:31:31;;;;;;;16.38;7.22;;;24.90;99.90;;;;;;5030811;28;20029;-59
2023/05/29 12:34:23;;;;;;;10.13;6.28;;;25.00;99.90;;;;;;5030603;28;20113;-59
2023/05/29 12:36:49;;;;;;;11.98;6.63;;;25.00;99.90;;;;;;5029099;28;20393;-59
2023/05/29 12:39:15;;;;;;;13.90;6.80;;;25.00;99.90;;;;;;5038954;28;20113;-58
2023/05/29 12:41:41;;;;;;;17.10;7.00;;;25.00;99.90;;;;;;5030343;28;20052;-58
2023/05/29 12:44:08;;;;;;;12.52;5.70;;;25.00;99.90;;;;;;5030227;28;20038;-60
2023/05/29 12:46:44;;;;;;;12.85;5.35;;;25.00;99.90;;;;;;5032745;28;20373;-60
2023/05/29 12:49:15;;;;;;;12.35;5.25;;;25.00;99.90;;;;;;5032826;28;20424;-58
2023/05/29 12:51:46;;;;;;;12.10;5.57;;;25.00;99.90;;;;;;5032416;28;20437;-59